Tropical Cyclones
[Index]
Main Index Home Page Stock Weather Photos Extreme Storms Discussion Storm News and Storm Chasing Reports Tropical Cyclones / Hurricanes / Typhoons Weather Data and Links Wild Fires / Bushfires Weather Observation Techniques Weather Picture Catalogue Tornado Pictures and Reports Stock Video Footage and DVDs for sale
Season 2016-2017 Tropical Cyclone ALFRED Track Map
Season 2016-2017 Summaries (Operational Data): [AU] [SIO] [SPAC] [SH]
<<- Previous TC | 2016-2017 Season | Next TC ->>

click for intensity scale information  Lat/long Grid: Show Hide

 Date Labels: Show Hide

Operational Tropical Cyclone Data : JTWC Advisories

Name: ALFRED
Number: 1706

15 Feb 2017 00:00 UTC to 22 Feb 2017 06:00 UTC

    date/time    lat    long     hPa   cat  kts
2017-02-15 00   17.3   137.0    1010         15          
2017-02-15 06   16.7   137.2    1010         15          
2017-02-15 12   16.2   137.5    1010         15          
2017-02-15 18   15.9   140.3    1010         15          
2017-02-16 00   15.9   139.8    1010         15          
2017-02-16 06   15.8   139.6    1005         20          
2017-02-16 12   16.1   139.4    1003         25          
2017-02-16 18   16.4   139.2    1000         30          
2017-02-16 21   16.8   139.0    1000         30          
2017-02-17 00   16.9   138.5    1000         30          
2017-02-17 06   17.0   138.2    1002         30          
2017-02-17 12   17.0   137.7    1001         30          
2017-02-17 18   16.8   136.9    1005         20          
2017-02-18 00   16.4   136.2    1005         20          
2017-02-18 06   16.0   135.8    1005         20          
2017-02-18 12   15.7   135.6    1005         20          
2017-02-18 18   15.3   135.4    1005         20          
2017-02-19 00   15.0   135.5    1002         20          
2017-02-19 06   14.8   135.8    1007         20          
2017-02-19 12   14.9   136.3    1000         20          
2017-02-19 18   15.1   136.8     996    1    35          
2017-02-20 00   15.2   137.1     989    1    45          
2017-02-20 06   15.4   137.4     989    1    45          
2017-02-20 12   15.5   137.6     993    1    40          
2017-02-20 18   15.6   137.8     996    1    35          
2017-02-21 00   16.0   138.0    1000         30          
2017-02-21 06   16.7   138.0    1004         25          
2017-02-21 12   17.0   137.7    1007         20          
2017-02-21 18   17.0   137.4    1007         20          
2017-02-22 00   16.7   137.1    1007         20          
2017-02-22 06   16.6   137.8    1007         20          
Winds are 10-min average.

Tropical cyclone tracks developed by Michael Bath using operational warnings and advisories and Google Maps.


[Australian Severe Weather index] [Copyright Notice] [Email Contacts] [Search This Site] [Privacy Policy]
Document: tropical_cyclone_alfred.htm Updated: 4 July 2017